Time;durP1;ratioP1;P1;durP2;ratioP2;P2;SDS_P1;SDS_P2;PMS_P1;PMS_P2;Temp;Humidity;BMP_temperature;BMP_pressure;BME280_temperature;BME280_humidity;BME280_pressure;Samples;Min_cycle;Max_cycle;Signal;HPM_P1;HPM_P2
2021/10/21 00:02:18;;;;;;;11.55;5.80;;;14.60;67.40;;;;;;6276859;22;20327;-66
2021/10/21 00:04:44;;;;;;;12.05;5.28;;;14.60;67.40;;;;;;6276954;22;20069;-66
2021/10/21 00:07:10;;;;;;;10.57;5.32;;;14.60;67.40;;;;;;6276947;22;20061;-66
2021/10/21 00:09:36;;;;;;;12.23;5.47;;;14.50;67.40;;;;;;6276804;22;20000;-66
2021/10/21 00:12:03;;;;;;;12.48;5.95;;;14.60;67.60;;;;;;6276673;22;20301;-67
2021/10/21 00:14:29;;;;;;;10.13;5.43;;;14.50;67.70;;;;;;6276838;22;19996;-68
2021/10/21 00:16:57;;;;;;;8.77;5.38;;;14.60;67.70;;;;;;6276907;22;20446;-67
2021/10/21 00:19:22;;;;;;;9.43;4.93;;;14.50;67.50;;;;;;6275342;22;20008;-66
2021/10/21 00:21:48;;;;;;;14.90;6.47;;;14.50;67.50;;;;;;6276805;22;20011;-65
2021/10/21 00:24:15;;;;;;;9.18;5.50;;;14.50;67.70;;;;;;6276758;22;19999;-66
2021/10/21 00:26:41;;;;;;;17.48;6.88;;;14.50;67.70;;;;;;6276676;22;20321;-66
2021/10/21 00:29:07;;;;;;;15.30;9.57;;;14.50;67.60;;;;;;6276489;22;20006;-66
2021/10/21 00:31:33;;;;;;;13.27;7.45;;;14.40;67.50;;;;;;6274329;22;20000;-66
2021/10/21 00:33:59;;;;;;;10.98;5.57;;;14.50;67.50;;;;;;6275091;22;20000;-66
2021/10/21 00:36:24;;;;;;;10.20;4.97;;;14.40;67.50;;;;;;6275248;22;20416;-66
2021/10/21 00:38:50;;;;;;;14.10;5.30;;;14.40;67.50;;;;;;6275337;22;19999;-66
2021/10/21 00:41:16;;;;;;;9.88;5.22;;;14.40;67.60;;;;;;6275457;22;20488;-66
2021/10/21 00:43:42;;;;;;;9.13;5.18;;;14.40;67.60;;;;;;6273212;22;20386;-66
2021/10/21 00:46:11;;;;;;;7.05;4.07;;;14.40;67.50;;;;;;6274968;22;19999;-66
2021/10/21 00:48:39;;;;;;;11.70;5.53;;;14.40;67.50;;;;;;6275195;22;20031;-66
2021/10/21 00:51:07;;;;;;;7.30;4.25;;;14.30;67.40;;;;;;6275091;22;19995;-66
2021/10/21 00:53:34;;;;;;;7.95;4.90;;;14.30;67.30;;;;;;6274949;22;20231;-66
2021/10/21 00:56:02;;;;;;;9.73;5.60;;;14.30;67.40;;;;;;6275296;22;20003;-66
2021/10/21 00:58:28;;;;;;;9.18;5.10;;;14.20;67.50;;;;;;6274980;22;20014;-66
2021/10/21 01:00:54;;;;;;;7.50;5.03;;;14.20;67.60;;;;;;6275289;22;19999;-66
2021/10/21 01:03:20;;;;;;;9.52;4.68;;;14.30;68.00;;;;;;6274443;22;20026;-66
2021/10/21 01:05:47;;;;;;;11.52;5.68;;;14.30;68.00;;;;;;6274838;22;20007;-66
2021/10/21 01:08:13;;;;;;;10.73;6.47;;;14.30;67.90;;;;;;6273393;22;20033;-66
2021/10/21 01:10:39;;;;;;;11.05;6.03;;;14.20;67.90;;;;;;6274142;22;20057;-66
2021/10/21 01:13:05;;;;;;;8.90;4.43;;;14.20;67.90;;;;;;6274309;22;20020;-66
2021/10/21 01:15:32;;;;;;;10.50;5.10;;;14.20;67.80;;;;;;6274256;22;20000;-66
2021/10/21 01:17:58;;;;;;;9.65;5.18;;;14.20;67.70;;;;;;6274688;22;20003;-66
2021/10/21 01:20:24;;;;;;;15.48;7.50;;;14.10;67.60;;;;;;6274819;22;20004;-66
2021/10/21 01:22:50;;;;;;;26.00;12.80;;;14.10;67.60;;;;;;6275000;22;20004;-66
2021/10/21 01:25:18;;;;;;;26.15;13.50;;;14.10;67.60;;;;;;6274811;22;20363;-66
2021/10/21 01:27:47;;;;;;;25.80;14.10;;;14.10;67.60;;;;;;6274875;22;20007;-66
2021/10/21 01:30:31;;;;;;;30.88;14.05;;;14.10;67.60;;;;;;6274573;22;20197;-66
2021/10/21 01:32:56;;;;;;;23.75;12.63;;;14.10;67.70;;;;;;6274667;22;20042;-66
2021/10/21 01:35:23;;;;;;;22.77;12.85;;;14.10;67.60;;;;;;6274812;22;19999;-66
2021/10/21 01:37:48;;;;;;;26.00;12.07;;;14.10;67.70;;;;;;6273267;22;20004;-66
2021/10/21 01:40:19;;;;;;;23.25;10.23;;;14.00;67.60;;;;;;6274812;22;20479;-66
2021/10/21 01:42:45;;;;;;;16.83;7.30;;;14.00;67.80;;;;;;6275048;22;19996;-66
2021/10/21 01:45:23;;;;;;;14.25;7.38;;;14.00;68.00;;;;;;6274928;22;20350;-66
2021/10/21 01:47:50;;;;;;;11.32;6.80;;;14.00;68.20;;;;;;6274833;22;20049;-66
2021/10/21 01:50:17;;;;;;;10.60;5.95;;;14.00;68.10;;;;;;6275029;22;20104;-67
2021/10/21 01:52:42;;;;;;;11.65;5.93;;;13.90;68.10;;;;;;6273113;22;19999;-66
2021/10/21 01:55:09;;;;;;;9.88;5.60;;;13.90;68.10;;;;;;6274898;22;20004;-66
2021/10/21 01:57:36;;;;;;;9.95;5.30;;;13.90;68.30;;;;;;6274841;22;20000;-66
2021/10/21 02:00:05;;;;;;;8.70;5.28;;;13.90;68.40;;;;;;6274828;22;20312;-66
2021/10/21 02:02:31;;;;;;;10.65;5.60;;;13.90;68.50;;;;;;6274782;22;20022;-66
2021/10/21 02:04:57;;;;;;;8.32;5.15;;;13.90;68.50;;;;;;6276463;22;20071;-66
2021/10/21 02:07:23;;;;;;;11.23;5.50;;;13.90;68.90;;;;;;6276905;22;19999;-67
2021/10/21 02:09:48;;;;;;;7.90;4.55;;;13.90;68.80;;;;;;6276791;22;20000;-66
2021/10/21 02:12:14;;;;;;;9.05;4.85;;;13.90;68.80;;;;;;6276488;22;20411;-66
2021/10/21 02:14:40;;;;;;;8.52;4.50;;;13.90;68.80;;;;;;6276750;22;20431;-66
2021/10/21 02:17:07;;;;;;;7.75;4.93;;;13.90;68.90;;;;;;6276647;22;20030;-67
2021/10/21 02:19:34;;;;;;;13.38;4.53;;;13.90;68.80;;;;;;6276747;22;20038;-67
2021/10/21 02:22:00;;;;;;;6.75;4.32;;;13.90;68.90;;;;;;6276766;22;20029;-66
2021/10/21 02:24:25;;;;;;;10.38;5.65;;;13.90;68.90;;;;;;6276615;22;20076;-66
2021/10/21 02:26:51;;;;;;;7.80;4.85;;;13.90;68.80;;;;;;6276738;22;20046;-66
2021/10/21 02:29:17;;;;;;;12.57;5.32;;;13.90;68.90;;;;;;6276446;22;20010;-66
2021/10/21 02:31:43;;;;;;;8.23;4.40;;;13.90;68.90;;;;;;6276518;22;20352;-66
2021/10/21 02:34:09;;;;;;;10.50;4.78;;;13.90;68.90;;;;;;6276560;22;20000;-66
2021/10/21 02:36:35;;;;;;;6.18;4.28;;;13.90;69.00;;;;;;6276465;22;19996;-66
2021/10/21 02:39:01;;;;;;;7.78;4.38;;;13.90;69.00;;;;;;6276444;22;20011;-66
2021/10/21 02:41:27;;;;;;;10.23;4.65;;;13.90;68.90;;;;;;6276506;22;20328;-66
2021/10/21 02:43:53;;;;;;;8.00;3.90;;;13.80;68.80;;;;;;6276382;22;20668;-66
2021/10/21 02:46:19;;;;;;;11.00;4.03;;;13.80;68.70;;;;;;6276245;22;20004;-66
2021/10/21 02:48:44;;;;;;;8.00;4.20;;;13.80;68.60;;;;;;6276171;22;20003;-66
2021/10/21 02:51:10;;;;;;;8.55;4.32;;;13.80;68.60;;;;;;6274737;22;20394;-66
2021/10/21 02:53:36;;;;;;;7.15;3.72;;;13.80;68.70;;;;;;6276357;22;20006;-66
2021/10/21 02:56:02;;;;;;;9.23;3.78;;;13.70;68.50;;;;;;6276307;22;19996;-66
2021/10/21 02:58:28;;;;;;;7.30;4.10;;;13.70;68.50;;;;;;6276129;22;20007;-66
2021/10/21 03:00:54;;;;;;;8.38;4.38;;;13.70;68.50;;;;;;6276235;22;20419;-66
2021/10/21 03:03:19;;;;;;;11.02;5.00;;;13.70;68.60;;;;;;6276192;22;20309;-66
2021/10/21 03:05:45;;;;;;;7.63;5.20;;;13.70;68.80;;;;;;6276196;22;19999;-66
2021/10/21 03:08:11;;;;;;;8.38;4.75;;;13.70;69.00;;;;;;6276043;22;19996;-66
2021/10/21 03:10:37;;;;;;;9.77;4.65;;;13.70;69.00;;;;;;6276201;22;20370;-66
2021/10/21 03:13:02;;;;;;;10.07;5.25;;;13.70;69.00;;;;;;6275827;22;20465;-67
2021/10/21 03:15:28;;;;;;;9.75;4.78;;;13.70;69.20;;;;;;6275480;22;20336;-66
2021/10/21 03:17:55;;;;;;;8.68;4.88;;;13.70;69.20;;;;;;6276138;22;20011;-66
2021/10/21 03:20:21;;;;;;;11.70;6.30;;;13.70;69.30;;;;;;6276022;22;20378;-66
2021/10/21 03:22:47;;;;;;;11.70;6.63;;;13.70;69.50;;;;;;6276090;22;20012;-66
2021/10/21 03:25:13;;;;;;;12.52;6.53;;;13.70;69.80;;;;;;6275929;22;20008;-66
2021/10/21 03:27:39;;;;;;;9.63;6.10;;;13.70;70.00;;;;;;6276006;22;20038;-66
2021/10/21 03:30:08;;;;;;;11.93;6.32;;;13.70;70.40;;;;;;6275835;22;20003;-66
2021/10/21 03:32:34;;;;;;;11.38;6.80;;;13.70;70.40;;;;;;6275945;22;19996;-66
2021/10/21 03:35:00;;;;;;;10.45;6.30;;;13.70;70.50;;;;;;6276011;22;20034;-66
2021/10/21 03:37:27;;;;;;;12.90;6.82;;;13.80;70.80;;;;;;6276035;22;20327;-67
2021/10/21 03:39:53;;;;;;;10.48;6.43;;;13.80;71.00;;;;;;6275646;22;20008;-66
2021/10/21 03:42:21;;;;;;;23.55;9.80;;;13.80;71.00;;;;;;6275916;22;20334;-66
2021/10/21 03:44:48;;;;;;;12.18;7.30;;;13.80;70.80;;;;;;6274318;22;20378;-66
2021/10/21 03:47:15;;;;;;;9.27;6.15;;;13.80;70.40;;;;;;6275715;22;20004;-66
2021/10/21 03:49:41;;;;;;;10.68;5.90;;;13.80;70.10;;;;;;6275583;22;20003;-66
2021/10/21 03:52:07;;;;;;;7.93;5.45;;;13.80;70.80;;;;;;6275708;22;20006;-66
2021/10/21 03:54:33;;;;;;;13.82;5.70;;;13.90;70.00;;;;;;6275647;22;20000;-66
2021/10/21 03:56:59;;;;;;;9.77;5.97;;;13.80;70.00;;;;;;6275710;22;20003;-66
2021/10/21 03:59:25;;;;;;;8.70;5.55;;;13.80;70.00;;;;;;6275659;22;20010;-66
2021/10/21 04:01:54;;;;;;;8.90;4.93;;;13.80;70.00;;;;;;6275654;22;19999;-66
2021/10/21 04:04:20;;;;;;;7.45;4.93;;;13.80;69.80;;;;;;6275632;22;20033;-66
2021/10/21 04:06:46;;;;;;;9.85;3.97;;;13.80;69.70;;;;;;6275450;22;20053;-66
2021/10/21 04:09:14;;;;;;;8.57;4.45;;;13.80;69.60;;;;;;6275367;22;20008;-66
2021/10/21 04:11:40;;;;;;;7.38;4.78;;;13.80;69.60;;;;;;6275411;22;19999;-67
2021/10/21 04:14:05;;;;;;;10.02;5.72;;;13.80;69.60;;;;;;6275979;22;20066;-66
2021/10/21 04:16:31;;;;;;;9.40;5.70;;;13.80;69.70;;;;;;6275467;22;20000;-66
2021/10/21 04:18:57;;;;;;;7.50;4.60;;;13.70;69.60;;;;;;6273410;22;20035;-66
2021/10/21 04:21:23;;;;;;;7.30;5.07;;;13.70;69.70;;;;;;6275306;22;20316;-66
2021/10/21 04:23:49;;;;;;;9.52;4.22;;;13.70;69.60;;;;;;6275328;22;20331;-66
2021/10/21 04:26:16;;;;;;;8.02;5.20;;;13.70;69.70;;;;;;6275333;22;20027;-67
2021/10/21 04:28:43;;;;;;;9.80;4.68;;;13.70;69.80;;;;;;6275026;22;20011;-67
2021/10/21 04:31:09;;;;;;;7.68;4.55;;;13.70;70.10;;;;;;6275195;22;19999;-66
2021/10/21 04:33:34;;;;;;;7.60;4.30;;;13.70;70.00;;;;;;6275249;22;20450;-67
2021/10/21 04:36:00;;;;;;;11.50;5.68;;;13.70;69.90;;;;;;6275188;22;19999;-67
2021/10/21 04:38:26;;;;;;;8.02;5.43;;;13.70;69.90;;;;;;6275160;22;20071;-67
2021/10/21 04:40:52;;;;;;;11.95;5.25;;;13.70;70.10;;;;;;6275262;22;20000;-67
2021/10/21 04:43:18;;;;;;;8.32;4.32;;;13.70;70.20;;;;;;6275224;22;20004;-67
2021/10/21 04:45:43;;;;;;;12.07;4.30;;;13.70;70.20;;;;;;6275146;22;20331;-66
2021/10/21 04:48:09;;;;;;;6.95;4.32;;;13.70;70.30;;;;;;6275173;22;20011;-66
2021/10/21 04:50:35;;;;;;;6.47;3.50;;;13.70;70.30;;;;;;6275152;22;20003;-67
2021/10/21 04:53:01;;;;;;;5.47;3.67;;;13.70;70.10;;;;;;6273457;22;20003;-67
2021/10/21 04:55:27;;;;;;;11.30;4.00;;;13.70;70.10;;;;;;6275074;22;19996;-67
2021/10/21 04:57:53;;;;;;;11.35;4.45;;;13.70;70.60;;;;;;6275164;22;20008;-67
2021/10/21 05:00:20;;;;;;;9.18;4.63;;;13.70;70.30;;;;;;6274850;22;20079;-67
2021/10/21 05:02:46;;;;;;;8.20;4.63;;;13.70;70.30;;;;;;6273417;22;20053;-67
2021/10/21 05:05:12;;;;;;;12.35;3.95;;;13.70;70.20;;;;;;6275124;22;19996;-67
2021/10/21 05:07:39;;;;;;;7.82;4.35;;;13.70;70.10;;;;;;6274794;22;20019;-67
2021/10/21 05:10:06;;;;;;;7.85;4.35;;;13.70;70.10;;;;;;6275084;22;20027;-66
2021/10/21 05:12:32;;;;;;;7.75;4.22;;;13.70;70.10;;;;;;6274717;22;20095;-68
2021/10/21 05:14:58;;;;;;;9.00;3.92;;;13.70;70.10;;;;;;6275036;22;20071;-66
2021/10/21 05:17:24;;;;;;;7.93;4.40;;;13.70;70.00;;;;;;6274660;22;20357;-66
2021/10/21 05:19:50;;;;;;;9.57;4.65;;;13.70;70.00;;;;;;6274839;22;20103;-66
2021/10/21 05:22:16;;;;;;;11.02;4.30;;;13.70;70.10;;;;;;6274653;22;19999;-66
2021/10/21 05:24:43;;;;;;;10.35;5.22;;;13.70;70.00;;;;;;6274300;22;20008;-66
2021/10/21 05:27:11;;;;;;;12.00;5.00;;;13.70;70.00;;;;;;6274942;22;19999;-65
2021/10/21 05:29:36;;;;;;;17.13;5.72;;;13.70;70.70;;;;;;6274802;22;20007;-65
2021/10/21 05:32:07;;;;;;;16.85;5.80;;;13.70;69.90;;;;;;6274661;22;20003;-65
2021/10/21 05:34:33;;;;;;;11.55;6.60;;;13.60;70.00;;;;;;6274851;22;20347;-65
2021/10/21 05:37:01;;;;;;;12.07;7.45;;;13.60;70.60;;;;;;6274973;22;20006;-66
2021/10/21 05:39:27;;;;;;;11.63;6.90;;;13.60;71.30;;;;;;6275619;22;20003;-65
2021/10/21 05:41:53;;;;;;;11.18;7.57;;;13.60;71.90;;;;;;6276914;22;20003;-66
2021/10/21 05:44:19;;;;;;;14.45;7.80;;;13.60;71.90;;;;;;6276929;22;20015;-65
2021/10/21 05:46:47;;;;;;;17.67;7.53;;;13.70;71.90;;;;;;6276954;22;20066;-65
2021/10/21 05:49:12;;;;;;;12.43;7.32;;;13.80;71.80;;;;;;6276701;22;20003;-65
2021/10/21 05:51:38;;;;;;;9.75;6.25;;;13.80;71.40;;;;;;6276705;22;20471;-65
2021/10/21 05:54:04;;;;;;;10.90;6.57;;;13.90;71.00;;;;;;6276809;22;20007;-65
2021/10/21 05:56:29;;;;;;;9.88;6.13;;;13.90;70.60;;;;;;6276512;22;19999;-66
2021/10/21 05:58:55;;;;;;;9.65;5.70;;;14.00;70.20;;;;;;6276809;22;20008;-66
2021/10/21 06:01:21;;;;;;;10.13;5.55;;;14.10;70.80;;;;;;6275151;22;20078;-66
2021/10/21 06:03:47;;;;;;;12.82;6.57;;;14.20;69.90;;;;;;6276771;22;20004;-66
2021/10/21 06:06:12;;;;;;;11.05;5.95;;;14.20;69.60;;;;;;6276678;22;20003;-66
2021/10/21 06:08:39;;;;;;;13.70;5.70;;;14.30;69.40;;;;;;6276643;22;19999;-66
2021/10/21 06:11:05;;;;;;;15.85;5.85;;;14.30;69.20;;;;;;6276771;22;20382;-66
2021/10/21 06:13:34;;;;;;;15.93;6.60;;;14.40;69.00;;;;;;6276556;22;20087;-66
2021/10/21 06:16:00;;;;;;;12.73;5.45;;;14.40;68.70;;;;;;6276835;22;20022;-67
2021/10/21 06:18:26;;;;;;;9.52;5.63;;;14.50;68.50;;;;;;6276761;22;20008;-66
2021/10/21 06:20:52;;;;;;;9.20;5.82;;;14.60;68.40;;;;;;6276667;22;20069;-66
2021/10/21 06:23:18;;;;;;;12.00;6.53;;;14.60;68.40;;;;;;6276564;22;20035;-66
2021/10/21 06:25:44;;;;;;;8.05;4.97;;;14.70;68.30;;;;;;6276611;22;20008;-67
2021/10/21 06:28:10;;;;;;;8.23;5.25;;;14.80;68.40;;;;;;6276414;22;19996;-67
2021/10/21 06:30:36;;;;;;;13.57;5.50;;;14.90;68.40;;;;;;6276557;22;20427;-67
2021/10/21 06:33:03;;;;;;;11.27;5.57;;;14.90;68.30;;;;;;6276588;22;20006;-67
2021/10/21 06:35:29;;;;;;;17.17;6.40;;;15.00;68.10;;;;;;6276548;22;20028;-67
2021/10/21 06:37:55;;;;;;;18.50;6.22;;;15.10;67.80;;;;;;6276524;22;19999;-67
2021/10/21 06:40:21;;;;;;;15.25;6.30;;;15.20;67.80;;;;;;6276554;22;20066;-67
2021/10/21 06:42:47;;;;;;;22.02;6.85;;;15.20;67.50;;;;;;6276416;22;20045;-67
2021/10/21 06:45:13;;;;;;;17.98;7.03;;;15.30;67.40;;;;;;6276527;22;20033;-67
2021/10/21 06:47:43;;;;;;;18.33;6.80;;;15.30;67.20;;;;;;6276461;22;19992;-66
2021/10/21 06:50:10;;;;;;;16.08;6.25;;;15.40;67.00;;;;;;6276032;22;20004;-66
2021/10/21 06:52:40;;;;;;;9.85;5.55;;;15.50;67.10;;;;;;6276404;22;20011;-68
2021/10/21 06:55:06;;;;;;;13.35;5.80;;;15.60;66.80;;;;;;6276510;22;20000;-66
2021/10/21 06:57:43;;;;;;;11.90;5.93;;;15.60;66.60;;;;;;6276297;22;20000;-66
2021/10/21 07:00:10;;;;;;;9.98;5.13;;;15.70;66.30;;;;;;6276376;22;20382;-66
2021/10/21 07:02:35;;;;;;;14.68;5.57;;;15.80;66.30;;;;;;6276256;22;19999;-66
2021/10/21 07:05:01;;;;;;;9.63;5.72;;;15.80;66.00;;;;;;6275973;22;20003;-67
2021/10/21 07:07:27;;;;;;;12.18;5.72;;;15.90;65.80;;;;;;6275757;22;20333;-67
2021/10/21 07:09:53;;;;;;;17.67;8.10;;;16.00;65.60;;;;;;6276126;22;20118;-67
2021/10/21 07:12:19;;;;;;;16.27;7.47;;;16.00;65.40;;;;;;6274358;22;20500;-67
2021/10/21 07:14:45;;;;;;;9.82;6.30;;;16.10;65.40;;;;;;6276052;22;20323;-66
2021/10/21 07:17:11;;;;;;;10.60;6.53;;;16.20;65.50;;;;;;6276443;22;19995;-66
2021/10/21 07:19:36;;;;;;;19.38;6.90;;;16.20;65.40;;;;;;6276769;22;20411;-66
2021/10/21 07:22:02;;;;;;;9.82;6.20;;;16.30;65.20;;;;;;6277100;22;20323;-67
2021/10/21 07:24:28;;;;;;;11.02;5.75;;;16.30;64.90;;;;;;6276994;22;19996;-66
2021/10/21 07:26:54;;;;;;;10.98;6.40;;;16.40;64.40;;;;;;6277291;22;20073;-66
2021/10/21 07:29:19;;;;;;;23.85;6.68;;;16.40;64.30;;;;;;6277151;22;20078;-66
2021/10/21 07:31:45;;;;;;;10.55;5.43;;;16.40;64.10;;;;;;6277308;22;20327;-66
2021/10/21 07:34:11;;;;;;;12.93;5.78;;;16.40;64.00;;;;;;6276635;22;19995;-66
2021/10/21 07:36:37;;;;;;;10.55;5.30;;;16.40;63.80;;;;;;6276901;22;19996;-66
2021/10/21 07:39:03;;;;;;;26.10;6.40;;;16.50;64.20;;;;;;6276765;22;20014;-66
2021/10/21 07:41:29;;;;;;;11.65;6.18;;;16.50;63.90;;;;;;6275452;22;20046;-66
2021/10/21 07:43:55;;;;;;;14.25;6.60;;;16.50;63.90;;;;;;6277021;22;19999;-66
2021/10/21 07:46:21;;;;;;;13.13;6.45;;;16.50;63.80;;;;;;6277039;22;20004;-65
2021/10/21 07:48:46;;;;;;;9.32;5.57;;;16.50;63.90;;;;;;6276501;22;20146;-66
2021/10/21 07:51:12;;;;;;;18.83;5.93;;;16.50;63.90;;;;;;6276687;22;20003;-66
2021/10/21 07:53:38;;;;;;;9.13;5.30;;;16.60;64.20;;;;;;6276819;22;20000;-66
2021/10/21 07:56:04;;;;;;;8.70;5.45;;;16.60;64.00;;;;;;6276410;22;20446;-66
2021/10/21 07:58:30;;;;;;;14.40;5.40;;;16.70;64.30;;;;;;6276875;22;19999;-66
2021/10/21 08:00:56;;;;;;;13.10;5.35;;;16.80;64.40;;;;;;6276623;22;20419;-66
2021/10/21 08:03:22;;;;;;;8.90;5.95;;;16.90;64.40;;;;;;6276503;22;20004;-66
2021/10/21 08:05:48;;;;;;;14.40;5.82;;;17.00;64.20;;;;;;6276923;22;20416;-66
2021/10/21 08:08:14;;;;;;;14.23;6.55;;;17.20;64.20;;;;;;6276799;22;20017;-66
2021/10/21 08:10:40;;;;;;;18.30;6.18;;;17.30;64.00;;;;;;6276353;22;20004;-66
2021/10/21 08:13:05;;;;;;;14.82;6.20;;;17.50;64.00;;;;;;6276531;22;20016;-67
2021/10/21 08:15:32;;;;;;;12.25;5.70;;;17.60;63.90;;;;;;6276569;22;19999;-66
2021/10/21 08:17:58;;;;;;;11.52;5.97;;;17.80;63.50;;;;;;6276505;22;20000;-66
2021/10/21 08:20:26;;;;;;;11.27;5.13;;;17.90;63.00;;;;;;6275129;22;20008;-66
2021/10/21 08:22:52;;;;;;;13.65;5.38;;;18.10;63.20;;;;;;6276812;22;20023;-67
2021/10/21 08:25:18;;;;;;;9.98;5.93;;;18.20;62.80;;;;;;6276478;22;20000;-66
2021/10/21 08:27:44;;;;;;;10.00;5.97;;;18.40;62.50;;;;;;6276552;22;20000;-67
2021/10/21 08:30:15;;;;;;;10.32;6.00;;;18.50;61.80;;;;;;6276490;22;20003;-66
2021/10/21 08:32:42;;;;;;;8.73;5.82;;;18.60;61.30;;;;;;6276518;22;20004;-67
2021/10/21 08:35:11;;;;;;;10.35;5.30;;;18.70;60.90;;;;;;6276114;22;20003;-66
2021/10/21 08:37:36;;;;;;;10.13;5.70;;;18.80;60.80;;;;;;6276213;22;20000;-66
2021/10/21 08:40:03;;;;;;;18.05;6.30;;;18.80;60.30;;;;;;6276647;22;20330;-66
2021/10/21 08:42:29;;;;;;;8.88;5.72;;;18.80;59.50;;;;;;6276457;22;20000;-66
2021/10/21 08:44:56;;;;;;;11.38;5.55;;;18.80;59.60;;;;;;6274747;22;20130;-67
2021/10/21 08:47:23;;;;;;;8.07;5.10;;;18.90;59.30;;;;;;6276027;22;20003;-66
2021/10/21 08:49:51;;;;;;;7.63;5.18;;;18.90;59.40;;;;;;6275972;22;19999;-66
2021/10/21 08:52:18;;;;;;;8.95;5.20;;;18.90;59.40;;;;;;6274705;22;20022;-67
2021/10/21 08:54:44;;;;;;;11.45;5.18;;;19.00;59.40;;;;;;6276468;22;20358;-67
2021/10/21 08:57:13;;;;;;;8.10;4.22;;;19.00;59.20;;;;;;6276219;22;19995;-66
2021/10/21 08:59:41;;;;;;;19.35;4.72;;;19.00;59.00;;;;;;6276171;22;19999;-67
2021/10/21 09:02:55;;;;;;;6.53;4.47;;;19.10;58.00;;;;;;6276218;22;20007;-67
2021/10/21 09:05:11;;;;;;;9.90;4.15;;;19.20;58.60;;;;;;6264971;22;20003;-66
2021/10/21 09:07:57;;;;;;;7.65;3.60;;;19.20;57.90;;;;;;6275994;22;20011;-67
2021/10/21 09:10:23;;;;;;;6.40;3.00;;;19.40;58.20;;;;;;6276023;22;20015;-65
2021/10/21 09:12:50;;;;;;;8.43;3.15;;;19.40;57.60;;;;;;6275552;22;20015;-67
2021/10/21 09:15:23;;;;;;;16.70;4.03;;;19.50;57.10;;;;;;6275229;22;19999;-67
2021/10/21 09:17:50;;;;;;;3.38;2.67;;;19.50;55.60;;;;;;6275844;22;20432;-65
2021/10/21 09:20:39;;;;;;;9.43;2.78;;;19.50;55.50;;;;;;6275253;22;20074;-66
2021/10/21 09:23:13;;;;;;;4.25;2.78;;;19.60;54.80;;;;;;6275925;22;20071;-66
2021/10/21 09:25:40;;;;;;;5.60;2.20;;;19.70;55.20;;;;;;6276098;22;19999;-66
2021/10/21 09:28:27;;;;;;;3.95;2.60;;;19.70;54.70;;;;;;6275901;22;20011;-67
2021/10/21 09:31:05;;;;;;;7.32;2.13;;;19.70;54.60;;;;;;6276114;22;20052;-67
2021/10/21 09:33:49;;;;;;;4.03;2.00;;;19.70;54.50;;;;;;6276194;22;20067;-67
2021/10/21 09:36:22;;;;;;;5.32;2.33;;;19.70;53.70;;;;;;6276054;22;19996;-66
2021/10/21 09:38:52;;;;;;;5.15;2.67;;;19.70;53.00;;;;;;6274293;22;20008;-66
2021/10/21 09:41:20;;;;;;;5.15;2.38;;;19.70;53.10;;;;;;6276214;22;20078;-67
2021/10/21 09:43:48;;;;;;;5.00;1.80;;;19.70;52.00;;;;;;6276097;22;20335;-66
2021/10/21 09:46:41;;;;;;;5.15;2.20;;;19.70;52.20;;;;;;6275934;22;20003;-66
2021/10/21 09:49:32;;;;;;;6.03;1.23;;;19.60;51.30;;;;;;6275997;22;20004;-66
2021/10/21 09:52:01;;;;;;;9.80;1.10;;;19.60;51.00;;;;;;6274678;22;20046;-66
2021/10/21 09:54:27;;;;;;;6.55;1.65;;;19.60;49.80;;;;;;6275931;22;20043;-66
2021/10/21 09:57:07;;;;;;;12.13;0.95;;;19.60;49.50;;;;;;6276094;22;20026;-67
2021/10/21 09:59:34;;;;;;;2.15;0.60;;;19.50;48.30;;;;;;6276158;22;20003;-67
2021/10/21 10:02:18;;;;;;;1.55;0.63;;;19.50;48.10;;;;;;6276015;22;20010;-66
2021/10/21 10:04:53;;;;;;;11.20;1.00;;;19.50;48.00;;;;;;6275765;22;20006;-66
2021/10/21 10:07:21;;;;;;;6.22;0.90;;;19.50;47.80;;;;;;6276171;22;19999;-66
2021/10/21 10:09:48;;;;;;;5.85;0.50;;;19.40;47.40;;;;;;6275889;22;20094;-66
2021/10/21 10:12:18;;;;;;;2.05;1.08;;;19.50;48.30;;;;;;6275793;22;19996;-66
2021/10/21 10:14:45;;;;;;;9.10;0.88;;;19.50;47.60;;;;;;6275938;22;20000;-66
2021/10/21 10:17:16;;;;;;;4.03;0.70;;;19.50;47.70;;;;;;6275907;22;19996;-66
2021/10/21 10:19:44;;;;;;;3.58;1.30;;;19.50;46.50;;;;;;6275845;22;20004;-66
2021/10/21 10:22:13;;;;;;;1.48;0.40;;;19.40;46.20;;;;;;6275792;22;20509;-66
2021/10/21 10:24:39;;;;;;;8.55;0.82;;;19.40;47.00;;;;;;6275692;22;20003;-66
2021/10/21 10:27:21;;;;;;;6.65;0.73;;;19.50;46.90;;;;;;6277552;22;20034;-66
2021/10/21 10:29:48;;;;;;;2.70;0.90;;;19.50;47.60;;;;;;6277699;22;20035;-65
2021/10/21 10:32:38;;;;;;;3.55;0.80;;;19.60;47.40;;;;;;6277829;22;20323;-65
2021/10/21 10:35:36;;;;;;;2.95;0.85;;;19.60;47.60;;;;;;6274588;22;20392;-65
2021/10/21 10:38:04;;;;;;;8.93;0.98;;;19.70;46.00;;;;;;6249777;22;20004;-66
2021/10/21 10:40:37;;;;;;;2.13;0.77;;;19.70;45.90;;;;;;6274493;22;20028;-67
2021/10/21 10:43:04;;;;;;;15.13;1.30;;;19.70;46.30;;;;;;6276006;22;20024;-67
2021/10/21 10:45:51;;;;;;;6.28;0.70;;;19.70;45.30;;;;;;6276452;22;20000;-65
2021/10/21 10:48:46;;;;;;;2.10;0.55;;;19.70;45.50;;;;;;6276285;22;20006;-63
2021/10/21 10:51:12;;;;;;;8.65;0.82;;;19.70;45.40;;;;;;6276560;22;19996;-64
2021/10/21 10:53:51;;;;;;;3.55;0.80;;;19.70;45.40;;;;;;6276408;22;19996;-66
2021/10/21 10:56:41;;;;;;;2.60;1.00;;;19.70;45.20;;;;;;6276229;22;20328;-66
2021/10/21 10:59:37;;;;;;;2.20;0.90;;;19.80;46.60;;;;;;6261116;22;20007;-65
2021/10/21 11:02:32;;;;;;;3.90;1.02;;;19.80;46.50;;;;;;6275223;22;20011;-66
2021/10/21 11:05:03;;;;;;;6.50;0.85;;;19.80;45.70;;;;;;6250588;22;20014;-66
2021/10/21 11:07:41;;;;;;;7.90;1.08;;;19.80;44.20;;;;;;6277001;22;20000;-67
2021/10/21 11:10:19;;;;;;;6.10;0.98;;;20.00;45.10;;;;;;6277142;22;20007;-67
2021/10/21 11:12:46;;;;;;;5.10;1.15;;;20.10;45.30;;;;;;6275240;22;20439;-67
2021/10/21 11:15:33;;;;;;;3.35;0.88;;;20.10;43.50;;;;;;6274226;22;20000;-65
2021/10/21 11:18:03;;;;;;;3.30;0.88;;;20.20;44.40;;;;;;6276980;22;20007;-66
2021/10/21 11:20:35;;;;;;;6.90;1.38;;;20.20;43.50;;;;;;6277393;22;19996;-66
2021/10/21 11:23:06;;;;;;;4.35;0.77;;;20.30;42.30;;;;;;6276611;22;20067;-65
2021/10/21 11:25:35;;;;;;;3.75;1.25;;;20.40;43.20;;;;;;6277362;22;20372;-65
2021/10/21 11:28:02;;;;;;;21.02;1.35;;;20.50;42.70;;;;;;6277203;22;20446;-65
2021/10/21 11:30:30;;;;;;;6.90;1.30;;;20.60;42.30;;;;;;6277325;22;20071;-66
2021/10/21 11:32:58;;;;;;;3.72;1.33;;;20.70;41.80;;;;;;6277210;22;19992;-65
2021/10/21 11:35:27;;;;;;;3.83;1.30;;;20.70;41.10;;;;;;6277130;22;20367;-66
2021/10/21 11:37:55;;;;;;;10.35;1.38;;;20.80;41.10;;;;;;6276675;22;20000;-66
2021/10/21 11:40:55;;;;;;;13.13;1.52;;;20.80;41.70;;;;;;6277238;22;20070;-65
2021/10/21 11:43:37;;;;;;;3.30;1.27;;;20.90;41.30;;;;;;6275859;22;20000;-65
2021/10/21 11:46:04;;;;;;;3.83;0.95;;;20.90;41.20;;;;;;6272259;22;19999;-66
2021/10/21 11:48:36;;;;;;;17.98;1.75;;;20.80;40.60;;;;;;6276571;22;20054;-66
2021/10/21 11:51:05;;;;;;;15.32;1.35;;;20.80;39.90;;;;;;6275571;22;20388;-66
2021/10/21 11:53:32;;;;;;;7.10;1.40;;;20.70;40.30;;;;;;6276785;22;20000;-66
2021/10/21 11:55:58;;;;;;;4.13;1.23;;;20.70;40.20;;;;;;6276988;22;19999;-66
2021/10/21 11:58:28;;;;;;;9.18;1.35;;;20.60;40.70;;;;;;6276760;22;20004;-66
2021/10/21 12:00:59;;;;;;;5.47;2.13;;;20.60;40.70;;;;;;6276495;22;20007;-66
2021/10/21 12:03:31;;;;;;;7.82;1.50;;;20.70;40.20;;;;;;6276427;22;20011;-66
2021/10/21 12:05:58;;;;;;;11.77;2.20;;;20.70;40.60;;;;;;6276940;22;20004;-66
2021/10/21 12:08:24;;;;;;;9.35;1.02;;;20.80;40.90;;;;;;6276709;22;20082;-66
2021/10/21 12:10:57;;;;;;;2.92;1.00;;;20.90;39.60;;;;;;6276875;22;20023;-66
2021/10/21 12:13:30;;;;;;;6.55;1.10;;;20.90;39.30;;;;;;6276605;22;20012;-66
2021/10/21 12:15:58;;;;;;;6.72;1.58;;;21.00;39.70;;;;;;6276848;22;20023;-66
2021/10/21 12:18:27;;;;;;;9.43;1.33;;;21.10;39.10;;;;;;6276583;22;20054;-66
2021/10/21 12:20:55;;;;;;;12.32;1.10;;;21.10;38.30;;;;;;6276697;22;20007;-67
2021/10/21 12:23:27;;;;;;;8.60;1.20;;;21.20;37.90;;;;;;6276742;22;20007;-66
2021/10/21 12:25:56;;;;;;;5.10;1.15;;;21.10;36.90;;;;;;6276874;22;20010;-66
2021/10/21 12:28:34;;;;;;;5.15;1.20;;;21.20;37.80;;;;;;6276474;22;20010;-66
2021/10/21 12:31:33;;;;;;;7.63;1.13;;;21.20;37.50;;;;;;6276729;22;20046;-66
2021/10/21 12:34:12;;;;;;;21.02;2.30;;;21.20;37.30;;;;;;6276568;22;20000;-67
2021/10/21 12:36:46;;;;;;;5.68;1.30;;;21.20;36.70;;;;;;6276815;22;19996;-66
2021/10/21 12:39:15;;;;;;;5.20;1.17;;;21.10;36.30;;;;;;6276608;22;20332;-67
2021/10/21 12:41:50;;;;;;;12.85;1.30;;;21.00;37.00;;;;;;6276663;22;20420;-66
2021/10/21 12:44:31;;;;;;;6.03;1.40;;;20.90;36.80;;;;;;6276293;22;20427;-66
2021/10/21 12:47:06;;;;;;;6.22;2.00;;;20.90;37.10;;;;;;6276438;22;20000;-66
2021/10/21 12:49:32;;;;;;;7.95;1.63;;;21.00;37.50;;;;;;6275911;22;20511;-66
2021/10/21 12:52:06;;;;;;;12.88;1.02;;;21.00;37.00;;;;;;6276529;22;20025;-66